sensor_id;sensor_type;location;lat;lon;timestamp;temperature;humidity
5134;DHT22;2585;48.696;10.066;2023-05-07T00:01:44;9.30;74.80
5134;DHT22;2585;48.696;10.066;2023-05-07T00:04:11;9.20;74.10
5134;DHT22;2585;48.696;10.066;2023-05-07T00:06:41;9.20;74.60
5134;DHT22;2585;48.696;10.066;2023-05-07T00:09:08;9.20;75.50
5134;DHT22;2585;48.696;10.066;2023-05-07T00:11:35;9.20;76.10
5134;DHT22;2585;48.696;10.066;2023-05-07T00:14:03;9.20;75.90
5134;DHT22;2585;48.696;10.066;2023-05-07T00:16:29;9.20;75.70
5134;DHT22;2585;48.696;10.066;2023-05-07T00:18:56;9.20;75.70
5134;DHT22;2585;48.696;10.066;2023-05-07T00:21:23;9.20;75.30
5134;DHT22;2585;48.696;10.066;2023-05-07T00:23:53;9.20;75.20
5134;DHT22;2585;48.696;10.066;2023-05-07T00:26:21;9.20;75.80
5134;DHT22;2585;48.696;10.066;2023-05-07T00:28:48;9.10;76.10
5134;DHT22;2585;48.696;10.066;2023-05-07T00:31:15;9.00;76.20
5134;DHT22;2585;48.696;10.066;2023-05-07T00:33:41;9.10;76.90
5134;DHT22;2585;48.696;10.066;2023-05-07T00:36:08;9.00;76.70
5134;DHT22;2585;48.696;10.066;2023-05-07T00:38:35;9.00;77.30
5134;DHT22;2585;48.696;10.066;2023-05-07T00:41:02;9.00;77.50
5134;DHT22;2585;48.696;10.066;2023-05-07T00:43:29;9.00;77.90
5134;DHT22;2585;48.696;10.066;2023-05-07T00:45:56;9.10;78.10
5134;DHT22;2585;48.696;10.066;2023-05-07T00:48:23;9.00;78.10
5134;DHT22;2585;48.696;10.066;2023-05-07T00:50:51;9.00;78.70
5134;DHT22;2585;48.696;10.066;2023-05-07T00:53:17;8.90;79.50
5134;DHT22;2585;48.696;10.066;2023-05-07T00:55:44;8.90;80.10
5134;DHT22;2585;48.696;10.066;2023-05-07T00:58:11;8.90;80.20
5134;DHT22;2585;48.696;10.066;2023-05-07T01:00:38;8.90;81.00
5134;DHT22;2585;48.696;10.066;2023-05-07T01:03:05;8.90;81.40
5134;DHT22;2585;48.696;10.066;2023-05-07T01:05:32;8.80;81.50
5134;DHT22;2585;48.696;10.066;2023-05-07T01:08:02;8.90;81.60
5134;DHT22;2585;48.696;10.066;2023-05-07T01:10:30;8.80;81.60
5134;DHT22;2585;48.696;10.066;2023-05-07T01:12:58;8.80;82.10
5134;DHT22;2585;48.696;10.066;2023-05-07T01:15:26;8.80;82.20
5134;DHT22;2585;48.696;10.066;2023-05-07T01:17:53;8.80;83.00
5134;DHT22;2585;48.696;10.066;2023-05-07T01:20:23;8.80;83.10
5134;DHT22;2585;48.696;10.066;2023-05-07T01:22:50;8.70;83.00
5134;DHT22;2585;48.696;10.066;2023-05-07T01:25:18;8.70;83.50
5134;DHT22;2585;48.696;10.066;2023-05-07T01:27:45;8.70;83.60
5134;DHT22;2585;48.696;10.066;2023-05-07T01:30:12;8.60;83.90
5134;DHT22;2585;48.696;10.066;2023-05-07T01:35:16;8.50;84.20
5134;DHT22;2585;48.696;10.066;2023-05-07T01:37:46;8.50;84.50
5134;DHT22;2585;48.696;10.066;2023-05-07T01:40:13;8.50;85.00
5134;DHT22;2585;48.696;10.066;2023-05-07T01:42:42;8.50;85.00
5134;DHT22;2585;48.696;10.066;2023-05-07T01:45:10;8.50;85.40
5134;DHT22;2585;48.696;10.066;2023-05-07T01:47:37;8.40;85.30
5134;DHT22;2585;48.696;10.066;2023-05-07T01:50:06;8.40;85.30
5134;DHT22;2585;48.696;10.066;2023-05-07T01:52:39;8.40;85.40
5134;DHT22;2585;48.696;10.066;2023-05-07T01:55:06;8.30;85.50
5134;DHT22;2585;48.696;10.066;2023-05-07T01:57:33;8.30;85.70
5134;DHT22;2585;48.696;10.066;2023-05-07T02:00:00;8.40;86.10
5134;DHT22;2585;48.696;10.066;2023-05-07T02:02:27;8.30;85.80
5134;DHT22;2585;48.696;10.066;2023-05-07T02:04:54;8.30;85.70
5134;DHT22;2585;48.696;10.066;2023-05-07T02:07:21;8.30;85.90
5134;DHT22;2585;48.696;10.066;2023-05-07T02:09:48;8.20;85.90
5134;DHT22;2585;48.696;10.066;2023-05-07T02:12:15;8.20;86.10
5134;DHT22;2585;48.696;10.066;2023-05-07T02:14:42;8.20;86.20
5134;DHT22;2585;48.696;10.066;2023-05-07T02:17:08;8.20;86.20
5134;DHT22;2585;48.696;10.066;2023-05-07T02:19:35;8.20;86.10
5134;DHT22;2585;48.696;10.066;2023-05-07T02:22:02;8.10;86.10
5134;DHT22;2585;48.696;10.066;2023-05-07T02:24:29;8.10;86.30
5134;DHT22;2585;48.696;10.066;2023-05-07T02:26:56;8.10;86.50
5134;DHT22;2585;48.696;10.066;2023-05-07T02:29:23;8.10;86.70
5134;DHT22;2585;48.696;10.066;2023-05-07T02:31:50;8.00;86.70
5134;DHT22;2585;48.696;10.066;2023-05-07T02:34:20;8.00;86.90
5134;DHT22;2585;48.696;10.066;2023-05-07T02:36:46;8.00;87.20
5134;DHT22;2585;48.696;10.066;2023-05-07T02:39:14;7.90;87.30
5134;DHT22;2585;48.696;10.066;2023-05-07T02:41:42;8.00;87.70
5134;DHT22;2585;48.696;10.066;2023-05-07T02:44:08;8.00;87.80
5134;DHT22;2585;48.696;10.066;2023-05-07T02:46:35;7.90;87.50
5134;DHT22;2585;48.696;10.066;2023-05-07T02:49:02;7.90;87.70
5134;DHT22;2585;48.696;10.066;2023-05-07T02:51:30;7.90;87.80
5134;DHT22;2585;48.696;10.066;2023-05-07T02:53:57;7.90;87.80
5134;DHT22;2585;48.696;10.066;2023-05-07T02:56:26;7.80;87.80
5134;DHT22;2585;48.696;10.066;2023-05-07T02:58:52;7.80;87.90
5134;DHT22;2585;48.696;10.066;2023-05-07T03:01:19;7.80;87.90
5134;DHT22;2585;48.696;10.066;2023-05-07T03:03:47;7.80;87.80
5134;DHT22;2585;48.696;10.066;2023-05-07T03:06:14;7.70;87.60
5134;DHT22;2585;48.696;10.066;2023-05-07T03:08:41;7.70;87.60
5134;DHT22;2585;48.696;10.066;2023-05-07T03:11:08;7.60;87.60
5134;DHT22;2585;48.696;10.066;2023-05-07T03:13:35;7.50;87.80
5134;DHT22;2585;48.696;10.066;2023-05-07T03:16:02;7.60;88.00
5134;DHT22;2585;48.696;10.066;2023-05-07T03:18:29;7.50;88.10
5134;DHT22;2585;48.696;10.066;2023-05-07T03:20:55;7.50;88.10
5134;DHT22;2585;48.696;10.066;2023-05-07T03:23:22;7.50;88.30
5134;DHT22;2585;48.696;10.066;2023-05-07T03:25:50;7.50;88.30
5134;DHT22;2585;48.696;10.066;2023-05-07T03:28:17;7.40;88.20
5134;DHT22;2585;48.696;10.066;2023-05-07T03:30:44;7.40;88.20
5134;DHT22;2585;48.696;10.066;2023-05-07T03:33:11;7.40;88.20
5134;DHT22;2585;48.696;10.066;2023-05-07T03:35:38;7.30;88.20
5134;DHT22;2585;48.696;10.066;2023-05-07T03:38:04;7.30;88.30
5134;DHT22;2585;48.696;10.066;2023-05-07T03:40:31;7.30;88.30
5134;DHT22;2585;48.696;10.066;2023-05-07T03:42:59;7.20;88.20
5134;DHT22;2585;48.696;10.066;2023-05-07T03:45:26;7.20;88.40
5134;DHT22;2585;48.696;10.066;2023-05-07T03:47:53;7.10;88.50
5134;DHT22;2585;48.696;10.066;2023-05-07T03:50:20;7.10;88.60
5134;DHT22;2585;48.696;10.066;2023-05-07T03:52:47;7.10;88.60
5134;DHT22;2585;48.696;10.066;2023-05-07T03:55:13;7.10;88.70
5134;DHT22;2585;48.696;10.066;2023-05-07T03:57:40;7.10;88.80
5134;DHT22;2585;48.696;10.066;2023-05-07T04:00:07;7.10;88.70
5134;DHT22;2585;48.696;10.066;2023-05-07T04:02:35;7.10;88.70
5134;DHT22;2585;48.696;10.066;2023-05-07T04:05:02;7.10;88.70
5134;DHT22;2585;48.696;10.066;2023-05-07T04:07:29;7.00;88.70
5134;DHT22;2585;48.696;10.066;2023-05-07T04:09:55;7.10;89.00
5134;DHT22;2585;48.696;10.066;2023-05-07T04:12:22;7.00;89.00
5134;DHT22;2585;48.696;10.066;2023-05-07T04:14:49;7.10;89.20
5134;DHT22;2585;48.696;10.066;2023-05-07T04:17:16;7.00;89.20
5134;DHT22;2585;48.696;10.066;2023-05-07T04:19:43;7.10;89.40
5134;DHT22;2585;48.696;10.066;2023-05-07T04:22:12;7.10;89.50
5134;DHT22;2585;48.696;10.066;2023-05-07T04:24:39;7.10;89.50
5134;DHT22;2585;48.696;10.066;2023-05-07T04:27:06;7.20;89.80
5134;DHT22;2585;48.696;10.066;2023-05-07T04:29:33;7.20;89.80
5134;DHT22;2585;48.696;10.066;2023-05-07T04:31:59;7.20;89.90
5134;DHT22;2585;48.696;10.066;2023-05-07T04:34:27;7.20;90.00
5134;DHT22;2585;48.696;10.066;2023-05-07T04:36:53;7.20;90.00
5134;DHT22;2585;48.696;10.066;2023-05-07T04:39:20;7.20;90.00
5134;DHT22;2585;48.696;10.066;2023-05-07T04:41:47;7.20;90.00
5134;DHT22;2585;48.696;10.066;2023-05-07T04:44:14;7.20;90.00
5134;DHT22;2585;48.696;10.066;2023-05-07T04:46:41;7.20;90.10
5134;DHT22;2585;48.696;10.066;2023-05-07T04:49:07;7.20;90.10
5134;DHT22;2585;48.696;10.066;2023-05-07T04:51:34;7.30;90.10
5134;DHT22;2585;48.696;10.066;2023-05-07T04:54:01;7.20;90.10
5134;DHT22;2585;48.696;10.066;2023-05-07T04:56:28;7.30;90.20
5134;DHT22;2585;48.696;10.066;2023-05-07T04:58:56;7.30;90.20
5134;DHT22;2585;48.696;10.066;2023-05-07T05:01:23;7.40;90.30
5134;DHT22;2585;48.696;10.066;2023-05-07T05:03:50;7.40;90.30
5134;DHT22;2585;48.696;10.066;2023-05-07T05:06:17;7.40;90.40
5134;DHT22;2585;48.696;10.066;2023-05-07T05:08:43;7.50;90.40
5134;DHT22;2585;48.696;10.066;2023-05-07T05:11:10;7.50;90.50
5134;DHT22;2585;48.696;10.066;2023-05-07T05:13:37;7.60;90.50
5134;DHT22;2585;48.696;10.066;2023-05-07T05:16:04;7.60;90.60
5134;DHT22;2585;48.696;10.066;2023-05-07T05:18:32;7.70;90.60
5134;DHT22;2585;48.696;10.066;2023-05-07T05:20:59;7.70;90.60
5134;DHT22;2585;48.696;10.066;2023-05-07T05:23:27;7.90;90.70
5134;DHT22;2585;48.696;10.066;2023-05-07T05:25:57;8.00;90.70
5134;DHT22;2585;48.696;10.066;2023-05-07T05:28:24;8.10;90.80
5134;DHT22;2585;48.696;10.066;2023-05-07T05:30:51;8.20;90.80
5134;DHT22;2585;48.696;10.066;2023-05-07T05:33:18;8.30;90.80
5134;DHT22;2585;48.696;10.066;2023-05-07T05:35:45;8.40;90.80
5134;DHT22;2585;48.696;10.066;2023-05-07T05:38:11;8.50;90.80
5134;DHT22;2585;48.696;10.066;2023-05-07T05:40:38;8.50;90.90
5134;DHT22;2585;48.696;10.066;2023-05-07T05:43:06;8.60;90.90
5134;DHT22;2585;48.696;10.066;2023-05-07T05:45:32;8.80;91.00
5134;DHT22;2585;48.696;10.066;2023-05-07T05:47:59;8.90;91.00
5134;DHT22;2585;48.696;10.066;2023-05-07T05:50:26;9.00;91.00
5134;DHT22;2585;48.696;10.066;2023-05-07T05:52:53;9.00;90.90
5134;DHT22;2585;48.696;10.066;2023-05-07T05:55:20;9.10;90.90
5134;DHT22;2585;48.696;10.066;2023-05-07T05:57:47;9.30;91.00
5134;DHT22;2585;48.696;10.066;2023-05-07T06:00:14;9.50;91.10
5134;DHT22;2585;48.696;10.066;2023-05-07T06:02:45;9.70;91.10
5134;DHT22;2585;48.696;10.066;2023-05-07T06:05:12;9.80;91.00
5134;DHT22;2585;48.696;10.066;2023-05-07T06:07:39;10.10;90.70
5134;DHT22;2585;48.696;10.066;2023-05-07T06:10:06;10.20;90.60
5134;DHT22;2585;48.696;10.066;2023-05-07T06:12:33;10.40;90.40
5134;DHT22;2585;48.696;10.066;2023-05-07T06:15:00;10.70;90.30
5134;DHT22;2585;48.696;10.066;2023-05-07T06:17:28;10.90;90.00
5134;DHT22;2585;48.696;10.066;2023-05-07T06:19:54;11.20;89.40
5134;DHT22;2585;48.696;10.066;2023-05-07T06:22:21;11.40;88.10
5134;DHT22;2585;48.696;10.066;2023-05-07T06:24:48;11.60;85.70
5134;DHT22;2585;48.696;10.066;2023-05-07T06:27:15;11.90;84.40
5134;DHT22;2585;48.696;10.066;2023-05-07T06:29:42;12.30;85.90
5134;DHT22;2585;48.696;10.066;2023-05-07T06:32:10;12.80;85.60
5134;DHT22;2585;48.696;10.066;2023-05-07T06:34:37;13.10;77.30
5134;DHT22;2585;48.696;10.066;2023-05-07T06:37:05;13.40;43.90
5134;DHT22;2585;48.696;10.066;2023-05-07T06:39:32;13.80;6.70
5134;DHT22;2585;48.696;10.066;2023-05-07T06:42:00;13.90;1.00
5134;DHT22;2585;48.696;10.066;2023-05-07T06:44:28;14.10;1.00
5134;DHT22;2585;48.696;10.066;2023-05-07T06:46:54;14.40;1.00
5134;DHT22;2585;48.696;10.066;2023-05-07T06:49:21;14.80;1.00
5134;DHT22;2585;48.696;10.066;2023-05-07T06:51:48;15.10;92.00
5134;DHT22;2585;48.696;10.066;2023-05-07T06:54:15;15.60;1.00
5134;DHT22;2585;48.696;10.066;2023-05-07T06:56:42;16.00;65.50
5134;DHT22;2585;48.696;10.066;2023-05-07T06:59:09;16.50;1.00
5134;DHT22;2585;48.696;10.066;2023-05-07T07:01:36;16.60;80.90
5134;DHT22;2585;48.696;10.066;2023-05-07T07:04:03;16.90;1.00
5134;DHT22;2585;48.696;10.066;2023-05-07T07:06:30;17.10;12.20
5134;DHT22;2585;48.696;10.066;2023-05-07T07:08:59;17.30;1.00
5134;DHT22;2585;48.696;10.066;2023-05-07T07:11:26;17.80;1.00
5134;DHT22;2585;48.696;10.066;2023-05-07T07:13:53;17.90;1.00
5134;DHT22;2585;48.696;10.066;2023-05-07T07:16:21;18.50;1.00
5134;DHT22;2585;48.696;10.066;2023-05-07T07:18:48;18.60;8.90
5134;DHT22;2585;48.696;10.066;2023-05-07T07:21:15;18.70;1.00
5134;DHT22;2585;48.696;10.066;2023-05-07T07:23:42;18.90;1.00
5134;DHT22;2585;48.696;10.066;2023-05-07T07:26:09;19.60;79.60
5134;DHT22;2585;48.696;10.066;2023-05-07T07:28:42;19.80;1.00
5134;DHT22;2585;48.696;10.066;2023-05-07T07:31:11;20.20;1.00
5134;DHT22;2585;48.696;10.066;2023-05-07T07:33:38;20.20;1.00
5134;DHT22;2585;48.696;10.066;2023-05-07T07:36:06;19.90;1.00
5134;DHT22;2585;48.696;10.066;2023-05-07T07:38:33;19.60;82.20
5134;DHT22;2585;48.696;10.066;2023-05-07T07:41:00;19.20;80.50
5134;DHT22;2585;48.696;10.066;2023-05-07T07:43:28;19.00;76.30
5134;DHT22;2585;48.696;10.066;2023-05-07T07:45:55;19.10;1.00
5134;DHT22;2585;48.696;10.066;2023-05-07T07:48:22;19.50;92.10
5134;DHT22;2585;48.696;10.066;2023-05-07T07:50:49;20.10;62.40
5134;DHT22;2585;48.696;10.066;2023-05-07T07:53:17;20.60;1.00
5134;DHT22;2585;48.696;10.066;2023-05-07T07:55:45;20.70;1.00
5134;DHT22;2585;48.696;10.066;2023-05-07T07:58:12;20.30;1.00
5134;DHT22;2585;48.696;10.066;2023-05-07T08:00:39;20.70;91.10
5134;DHT22;2585;48.696;10.066;2023-05-07T08:03:05;21.20;90.70
5134;DHT22;2585;48.696;10.066;2023-05-07T08:05:34;21.30;61.80
5134;DHT22;2585;48.696;10.066;2023-05-07T08:08:01;21.50;54.70
5134;DHT22;2585;48.696;10.066;2023-05-07T08:10:27;21.70;18.50
5134;DHT22;2585;48.696;10.066;2023-05-07T08:12:54;22.00;1.40
5134;DHT22;2585;48.696;10.066;2023-05-07T08:15:21;22.30;1.00
5134;DHT22;2585;48.696;10.066;2023-05-07T08:17:48;22.10;1.00
5134;DHT22;2585;48.696;10.066;2023-05-07T08:20:15;22.10;1.00
5134;DHT22;2585;48.696;10.066;2023-05-07T08:22:41;22.10;1.00
5134;DHT22;2585;48.696;10.066;2023-05-07T08:25:08;22.10;94.00
5134;DHT22;2585;48.696;10.066;2023-05-07T08:27:35;22.00;89.10
5134;DHT22;2585;48.696;10.066;2023-05-07T08:30:03;22.00;86.30
5134;DHT22;2585;48.696;10.066;2023-05-07T08:32:30;21.90;82.30
5134;DHT22;2585;48.696;10.066;2023-05-07T08:34:57;22.30;79.00
5134;DHT22;2585;48.696;10.066;2023-05-07T08:37:24;22.10;76.30
5134;DHT22;2585;48.696;10.066;2023-05-07T08:39:51;22.70;76.00
5134;DHT22;2585;48.696;10.066;2023-05-07T08:42:18;22.80;68.00
5134;DHT22;2585;48.696;10.066;2023-05-07T08:44:48;22.70;67.40
5134;DHT22;2585;48.696;10.066;2023-05-07T08:47:20;23.00;70.90
5134;DHT22;2585;48.696;10.066;2023-05-07T08:49:48;23.40;69.00
5134;DHT22;2585;48.696;10.066;2023-05-07T08:52:16;23.70;63.20
5134;DHT22;2585;48.696;10.066;2023-05-07T08:54:43;23.10;31.80
5134;DHT22;2585;48.696;10.066;2023-05-07T08:57:10;23.20;32.20
5134;DHT22;2585;48.696;10.066;2023-05-07T08:59:37;23.50;27.70
5134;DHT22;2585;48.696;10.066;2023-05-07T09:02:07;23.70;8.10
5134;DHT22;2585;48.696;10.066;2023-05-07T09:04:35;24.10;24.00
5134;DHT22;2585;48.696;10.066;2023-05-07T09:07:02;24.10;1.00
5134;DHT22;2585;48.696;10.066;2023-05-07T09:09:35;24.10;1.00
5134;DHT22;2585;48.696;10.066;2023-05-07T09:12:01;23.80;1.00
5134;DHT22;2585;48.696;10.066;2023-05-07T09:14:30;24.10;1.00
5134;DHT22;2585;48.696;10.066;2023-05-07T09:16:57;24.00;1.00
5134;DHT22;2585;48.696;10.066;2023-05-07T09:19:25;24.50;1.00
5134;DHT22;2585;48.696;10.066;2023-05-07T09:21:59;25.00;1.00
5134;DHT22;2585;48.696;10.066;2023-05-07T09:24:26;25.10;1.00
5134;DHT22;2585;48.696;10.066;2023-05-07T09:26:57;24.90;1.00
5134;DHT22;2585;48.696;10.066;2023-05-07T09:29:25;24.90;1.00
5134;DHT22;2585;48.696;10.066;2023-05-07T09:31:51;24.40;1.00
5134;DHT22;2585;48.696;10.066;2023-05-07T09:34:18;24.20;1.00
5134;DHT22;2585;48.696;10.066;2023-05-07T09:36:45;24.20;1.00
5134;DHT22;2585;48.696;10.066;2023-05-07T09:39:12;24.10;1.00
5134;DHT22;2585;48.696;10.066;2023-05-07T09:41:49;24.30;1.00
5134;DHT22;2585;48.696;10.066;2023-05-07T09:44:16;24.40;1.00
5134;DHT22;2585;48.696;10.066;2023-05-07T09:46:43;24.60;1.00
5134;DHT22;2585;48.696;10.066;2023-05-07T09:49:22;24.90;1.00
5134;DHT22;2585;48.696;10.066;2023-05-07T09:51:50;25.10;1.00
5134;DHT22;2585;48.696;10.066;2023-05-07T09:54:18;25.00;95.20
5134;DHT22;2585;48.696;10.066;2023-05-07T09:56:45;24.60;94.40
5134;DHT22;2585;48.696;10.066;2023-05-07T09:59:16;24.60;94.50
5134;DHT22;2585;48.696;10.066;2023-05-07T10:01:44;24.10;93.90
5134;DHT22;2585;48.696;10.066;2023-05-07T10:04:11;24.00;95.30
5134;DHT22;2585;48.696;10.066;2023-05-07T10:06:39;24.30;93.60
5134;DHT22;2585;48.696;10.066;2023-05-07T10:09:06;24.40;93.60
5134;DHT22;2585;48.696;10.066;2023-05-07T10:11:34;24.00;92.30
5134;DHT22;2585;48.696;10.066;2023-05-07T10:14:04;23.60;91.70
5134;DHT22;2585;48.696;10.066;2023-05-07T10:16:35;24.10;89.10
5134;DHT22;2585;48.696;10.066;2023-05-07T10:19:03;24.60;88.00
5134;DHT22;2585;48.696;10.066;2023-05-07T10:22:15;25.00;88.40
5134;DHT22;2585;48.696;10.066;2023-05-07T10:24:26;24.30;83.90
5134;DHT22;2585;48.696;10.066;2023-05-07T10:26:56;24.50;83.90
5134;DHT22;2585;48.696;10.066;2023-05-07T10:32:29;25.10;82.10
5134;DHT22;2585;48.696;10.066;2023-05-07T10:34:59;25.10;79.10
5134;DHT22;2585;48.696;10.066;2023-05-07T10:37:27;25.10;77.40
5134;DHT22;2585;48.696;10.066;2023-05-07T10:39:55;24.30;76.20
5134;DHT22;2585;48.696;10.066;2023-05-07T10:42:22;24.30;77.80
5134;DHT22;2585;48.696;10.066;2023-05-07T10:44:48;24.40;77.40
5134;DHT22;2585;48.696;10.066;2023-05-07T10:47:16;24.40;75.90
5134;DHT22;2585;48.696;10.066;2023-05-07T10:52:17;24.80;74.00
5134;DHT22;2585;48.696;10.066;2023-05-07T10:54:45;24.60;73.50
5134;DHT22;2585;48.696;10.066;2023-05-07T10:57:34;24.60;72.60
5134;DHT22;2585;48.696;10.066;2023-05-07T11:03:05;25.20;73.00
5134;DHT22;2585;48.696;10.066;2023-05-07T11:05:34;25.90;75.40
5134;DHT22;2585;48.696;10.066;2023-05-07T11:08:04;25.50;72.40
5134;DHT22;2585;48.696;10.066;2023-05-07T11:10:51;25.50;71.20
5134;DHT22;2585;48.696;10.066;2023-05-07T11:13:19;25.70;70.30
5134;DHT22;2585;48.696;10.066;2023-05-07T11:16:07;25.90;70.40
5134;DHT22;2585;48.696;10.066;2023-05-07T11:18:53;26.10;68.20
5134;DHT22;2585;48.696;10.066;2023-05-07T11:21:40;25.90;70.00
5134;DHT22;2585;48.696;10.066;2023-05-07T11:24:08;26.20;69.20
5134;DHT22;2585;48.696;10.066;2023-05-07T11:26:47;26.20;66.60
5134;DHT22;2585;48.696;10.066;2023-05-07T11:29:19;25.60;64.50
5134;DHT22;2585;48.696;10.066;2023-05-07T11:31:52;25.70;64.50
5134;DHT22;2585;48.696;10.066;2023-05-07T11:34:24;26.10;65.80
5134;DHT22;2585;48.696;10.066;2023-05-07T11:36:52;26.40;64.50
5134;DHT22;2585;48.696;10.066;2023-05-07T11:39:26;25.80;63.50
5134;DHT22;2585;48.696;10.066;2023-05-07T11:41:53;26.20;65.90
5134;DHT22;2585;48.696;10.066;2023-05-07T11:44:20;25.80;63.50
5134;DHT22;2585;48.696;10.066;2023-05-07T11:46:47;26.00;64.30
5134;DHT22;2585;48.696;10.066;2023-05-07T11:49:14;26.20;65.60
5134;DHT22;2585;48.696;10.066;2023-05-07T11:51:42;26.70;65.30
5134;DHT22;2585;48.696;10.066;2023-05-07T11:54:09;26.80;64.50
5134;DHT22;2585;48.696;10.066;2023-05-07T11:56:38;26.40;61.80
5134;DHT22;2585;48.696;10.066;2023-05-07T11:59:05;26.20;61.50
5134;DHT22;2585;48.696;10.066;2023-05-07T12:01:35;26.60;64.20
5134;DHT22;2585;48.696;10.066;2023-05-07T12:04:03;26.40;61.90
5134;DHT22;2585;48.696;10.066;2023-05-07T12:06:36;26.70;61.60
5134;DHT22;2585;48.696;10.066;2023-05-07T12:09:04;26.80;61.40
5134;DHT22;2585;48.696;10.066;2023-05-07T12:11:31;27.00;61.70
5134;DHT22;2585;48.696;10.066;2023-05-07T12:13:58;26.60;60.70
5134;DHT22;2585;48.696;10.066;2023-05-07T12:16:29;26.40;61.80
5134;DHT22;2585;48.696;10.066;2023-05-07T12:18:56;26.20;61.70
5134;DHT22;2585;48.696;10.066;2023-05-07T12:21:25;26.50;61.20
5134;DHT22;2585;48.696;10.066;2023-05-07T12:23:52;25.50;57.80
5134;DHT22;2585;48.696;10.066;2023-05-07T12:26:19;25.20;60.20
5134;DHT22;2585;48.696;10.066;2023-05-07T12:28:47;24.80;60.00
5134;DHT22;2585;48.696;10.066;2023-05-07T12:31:14;24.40;60.90
5134;DHT22;2585;48.696;10.066;2023-05-07T12:33:42;24.60;62.20
5134;DHT22;2585;48.696;10.066;2023-05-07T12:36:12;24.90;61.00
5134;DHT22;2585;48.696;10.066;2023-05-07T12:38:39;24.70;61.20
5134;DHT22;2585;48.696;10.066;2023-05-07T12:41:09;24.80;61.40
5134;DHT22;2585;48.696;10.066;2023-05-07T12:43:36;24.60;61.40
5134;DHT22;2585;48.696;10.066;2023-05-07T12:46:05;24.30;60.40
5134;DHT22;2585;48.696;10.066;2023-05-07T12:48:33;24.50;61.90
5134;DHT22;2585;48.696;10.066;2023-05-07T12:51:00;24.50;62.50
5134;DHT22;2585;48.696;10.066;2023-05-07T12:53:29;24.30;63.00
5134;DHT22;2585;48.696;10.066;2023-05-07T12:55:58;24.30;63.50
5134;DHT22;2585;48.696;10.066;2023-05-07T12:58:28;24.20;65.00
5134;DHT22;2585;48.696;10.066;2023-05-07T13:00:56;24.10;64.00
5134;DHT22;2585;48.696;10.066;2023-05-07T13:03:34;24.00;63.60
5134;DHT22;2585;48.696;10.066;2023-05-07T13:06:08;23.70;64.50
5134;DHT22;2585;48.696;10.066;2023-05-07T13:08:38;23.80;63.50
5134;DHT22;2585;48.696;10.066;2023-05-07T13:11:08;23.60;62.20
5134;DHT22;2585;48.696;10.066;2023-05-07T13:13:36;23.30;62.70
5134;DHT22;2585;48.696;10.066;2023-05-07T13:16:04;23.30;65.30
5134;DHT22;2585;48.696;10.066;2023-05-07T13:18:32;23.20;64.30
5134;DHT22;2585;48.696;10.066;2023-05-07T13:21:00;23.40;65.90
5134;DHT22;2585;48.696;10.066;2023-05-07T13:23:27;23.50;66.20
5134;DHT22;2585;48.696;10.066;2023-05-07T13:25:54;23.70;65.80
5134;DHT22;2585;48.696;10.066;2023-05-07T13:28:26;23.50;66.40
5134;DHT22;2585;48.696;10.066;2023-05-07T13:30:53;23.60;66.30
5134;DHT22;2585;48.696;10.066;2023-05-07T13:33:21;23.30;64.00
5134;DHT22;2585;48.696;10.066;2023-05-07T13:35:47;23.00;64.10
5134;DHT22;2585;48.696;10.066;2023-05-07T13:38:14;23.00;65.30
5134;DHT22;2585;48.696;10.066;2023-05-07T13:40:42;23.00;67.90
5134;DHT22;2585;48.696;10.066;2023-05-07T13:43:09;23.00;67.20
5134;DHT22;2585;48.696;10.066;2023-05-07T13:45:37;22.80;66.60
5134;DHT22;2585;48.696;10.066;2023-05-07T13:48:04;22.70;65.50
5134;DHT22;2585;48.696;10.066;2023-05-07T13:50:31;22.50;67.10
5134;DHT22;2585;48.696;10.066;2023-05-07T13:52:57;22.50;67.50
5134;DHT22;2585;48.696;10.066;2023-05-07T13:55:25;22.60;68.90
5134;DHT22;2585;48.696;10.066;2023-05-07T13:57:56;22.60;66.00
5134;DHT22;2585;48.696;10.066;2023-05-07T14:00:24;22.40;66.60
5134;DHT22;2585;48.696;10.066;2023-05-07T14:02:51;22.40;66.30
5134;DHT22;2585;48.696;10.066;2023-05-07T14:05:19;22.50;66.60
5134;DHT22;2585;48.696;10.066;2023-05-07T14:07:46;22.40;67.80
5134;DHT22;2585;48.696;10.066;2023-05-07T14:10:13;22.30;67.30
5134;DHT22;2585;48.696;10.066;2023-05-07T14:12:41;22.10;67.50
5134;DHT22;2585;48.696;10.066;2023-05-07T14:15:08;22.20;68.90
5134;DHT22;2585;48.696;10.066;2023-05-07T14:17:35;22.20;68.80
5134;DHT22;2585;48.696;10.066;2023-05-07T14:20:02;22.30;72.10
5134;DHT22;2585;48.696;10.066;2023-05-07T14:22:29;22.40;72.00
5134;DHT22;2585;48.696;10.066;2023-05-07T14:24:55;22.20;68.20
5134;DHT22;2585;48.696;10.066;2023-05-07T14:27:39;22.10;69.20
5134;DHT22;2585;48.696;10.066;2023-05-07T14:30:06;22.10;72.30
5134;DHT22;2585;48.696;10.066;2023-05-07T14:32:34;22.10;69.60
5134;DHT22;2585;48.696;10.066;2023-05-07T14:35:01;22.20;72.30
5134;DHT22;2585;48.696;10.066;2023-05-07T14:37:28;22.20;72.00
5134;DHT22;2585;48.696;10.066;2023-05-07T14:39:54;22.20;73.10
5134;DHT22;2585;48.696;10.066;2023-05-07T14:42:21;22.10;72.60
5134;DHT22;2585;48.696;10.066;2023-05-07T14:44:48;22.10;72.00
5134;DHT22;2585;48.696;10.066;2023-05-07T14:47:15;21.80;68.90
5134;DHT22;2585;48.696;10.066;2023-05-07T14:49:45;21.70;72.40
5134;DHT22;2585;48.696;10.066;2023-05-07T14:52:12;21.90;73.10
5134;DHT22;2585;48.696;10.066;2023-05-07T14:54:38;21.90;74.30
5134;DHT22;2585;48.696;10.066;2023-05-07T14:57:07;21.90;74.40
5134;DHT22;2585;48.696;10.066;2023-05-07T14:59:34;21.80;75.50
5134;DHT22;2585;48.696;10.066;2023-05-07T15:02:01;21.70;78.60
5134;DHT22;2585;48.696;10.066;2023-05-07T15:04:32;21.80;76.30
5134;DHT22;2585;48.696;10.066;2023-05-07T15:06:59;21.70;77.20
5134;DHT22;2585;48.696;10.066;2023-05-07T15:09:26;21.60;75.80
5134;DHT22;2585;48.696;10.066;2023-05-07T15:11:53;21.70;76.30
5134;DHT22;2585;48.696;10.066;2023-05-07T15:14:20;21.60;76.40
5134;DHT22;2585;48.696;10.066;2023-05-07T15:16:49;21.60;80.40
5134;DHT22;2585;48.696;10.066;2023-05-07T15:19:16;21.30;78.60
5134;DHT22;2585;48.696;10.066;2023-05-07T15:21:43;21.30;78.40
5134;DHT22;2585;48.696;10.066;2023-05-07T15:24:10;21.40;81.90
5134;DHT22;2585;48.696;10.066;2023-05-07T15:26:37;21.10;78.80
5134;DHT22;2585;48.696;10.066;2023-05-07T15:29:04;21.10;77.50
5134;DHT22;2585;48.696;10.066;2023-05-07T15:31:37;21.00;77.20
5134;DHT22;2585;48.696;10.066;2023-05-07T15:34:06;20.80;77.60
5134;DHT22;2585;48.696;10.066;2023-05-07T15:36:33;20.80;79.30
5134;DHT22;2585;48.696;10.066;2023-05-07T15:39:00;20.70;82.50
5134;DHT22;2585;48.696;10.066;2023-05-07T15:41:29;20.60;80.90
5134;DHT22;2585;48.696;10.066;2023-05-07T15:43:56;20.40;89.40
5134;DHT22;2585;48.696;10.066;2023-05-07T15:46:24;19.60;1.00
5134;DHT22;2585;48.696;10.066;2023-05-07T15:48:52;18.90;81.00
5134;DHT22;2585;48.696;10.066;2023-05-07T15:51:19;18.60;1.00
5134;DHT22;2585;48.696;10.066;2023-05-07T15:53:46;18.50;67.60
5134;DHT22;2585;48.696;10.066;2023-05-07T15:56:13;18.40;75.40
5134;DHT22;2585;48.696;10.066;2023-05-07T15:58:40;18.40;71.30
5134;DHT22;2585;48.696;10.066;2023-05-07T16:01:07;18.40;85.90
5134;DHT22;2585;48.696;10.066;2023-05-07T16:03:34;18.30;74.50
5134;DHT22;2585;48.696;10.066;2023-05-07T16:06:01;18.20;68.60
5134;DHT22;2585;48.696;10.066;2023-05-07T16:08:28;18.20;79.10
5134;DHT22;2585;48.696;10.066;2023-05-07T16:10:55;18.10;60.70